sensor_id;sensor_type;location;lat;lon;timestamp;P1;durP1;ratioP1;P2;durP2;ratioP2
48516;SDS011;34310;51.904;4.256;2022-10-23T00:01:34;3.67;;;3.17;;
48516;SDS011;34310;51.904;4.256;2022-10-23T00:04:07;4.38;;;3.60;;
48516;SDS011;34310;51.904;4.256;2022-10-23T00:06:39;5.10;;;3.60;;
48516;SDS011;34310;51.904;4.256;2022-10-23T00:09:07;5.32;;;3.92;;
48516;SDS011;34310;51.904;4.256;2022-10-23T00:11:37;7.30;;;4.00;;
48516;SDS011;34310;51.904;4.256;2022-10-23T00:14:06;3.78;;;3.33;;
48516;SDS011;34310;51.904;4.256;2022-10-23T00:16:34;5.40;;;4.10;;
48516;SDS011;34310;51.904;4.256;2022-10-23T00:19:01;5.22;;;3.85;;
48516;SDS011;34310;51.904;4.256;2022-10-23T00:21:29;4.10;;;3.13;;
48516;SDS011;34310;51.904;4.256;2022-10-23T00:23:57;5.53;;;3.53;;
48516;SDS011;34310;51.904;4.256;2022-10-23T00:26:25;4.63;;;3.50;;
48516;SDS011;34310;51.904;4.256;2022-10-23T00:28:53;4.97;;;3.60;;
48516;SDS011;34310;51.904;4.256;2022-10-23T00:31:21;5.32;;;3.78;;
48516;SDS011;34310;51.904;4.256;2022-10-23T00:33:49;4.32;;;3.50;;
48516;SDS011;34310;51.904;4.256;2022-10-23T00:36:18;4.88;;;3.60;;
48516;SDS011;34310;51.904;4.256;2022-10-23T00:38:46;5.50;;;4.00;;
48516;SDS011;34310;51.904;4.256;2022-10-23T00:41:16;4.47;;;3.45;;
48516;SDS011;34310;51.904;4.256;2022-10-23T00:46:24;7.45;;;3.97;;
48516;SDS011;34310;51.904;4.256;2022-10-23T00:48:52;4.68;;;3.47;;
48516;SDS011;34310;51.904;4.256;2022-10-23T00:51:19;5.38;;;3.53;;
48516;SDS011;34310;51.904;4.256;2022-10-23T00:53:48;4.75;;;3.70;;
48516;SDS011;34310;51.904;4.256;2022-10-23T00:56:40;8.90;;;4.10;;
48516;SDS011;34310;51.904;4.256;2022-10-23T00:59:09;5.82;;;3.80;;
48516;SDS011;34310;51.904;4.256;2022-10-23T01:01:37;6.38;;;4.03;;
48516;SDS011;34310;51.904;4.256;2022-10-23T01:04:05;4.88;;;3.75;;
48516;SDS011;34310;51.904;4.256;2022-10-23T01:06:49;6.70;;;3.75;;
48516;SDS011;34310;51.904;4.256;2022-10-23T01:12:15;6.82;;;3.80;;
48516;SDS011;34310;51.904;4.256;2022-10-23T01:15:04;5.78;;;3.63;;
48516;SDS011;34310;51.904;4.256;2022-10-23T01:17:58;5.13;;;3.60;;
48516;SDS011;34310;51.904;4.256;2022-10-23T01:29:11;5.78;;;4.00;;
48516;SDS011;34310;51.904;4.256;2022-10-23T01:31:55;5.95;;;3.85;;
48516;SDS011;34310;51.904;4.256;2022-10-23T01:34:36;5.80;;;3.67;;
48516;SDS011;34310;51.904;4.256;2022-10-23T01:37:25;5.00;;;3.85;;
48516;SDS011;34310;51.904;4.256;2022-10-23T01:40:04;5.93;;;3.63;;
48516;SDS011;34310;51.904;4.256;2022-10-23T01:42:39;4.50;;;3.75;;
48516;SDS011;34310;51.904;4.256;2022-10-23T01:45:12;4.55;;;3.50;;
48516;SDS011;34310;51.904;4.256;2022-10-23T01:47:50;5.88;;;4.00;;
48516;SDS011;34310;51.904;4.256;2022-10-23T01:50:19;5.07;;;3.70;;
48516;SDS011;34310;51.904;4.256;2022-10-23T01:52:49;5.78;;;4.15;;
48516;SDS011;34310;51.904;4.256;2022-10-23T01:55:17;5.65;;;3.88;;
48516;SDS011;34310;51.904;4.256;2022-10-23T01:57:45;5.30;;;3.65;;
48516;SDS011;34310;51.904;4.256;2022-10-23T02:00:16;6.15;;;3.78;;
48516;SDS011;34310;51.904;4.256;2022-10-23T02:02:45;4.90;;;3.72;;
48516;SDS011;34310;51.904;4.256;2022-10-23T02:05:20;4.88;;;3.60;;
48516;SDS011;34310;51.904;4.256;2022-10-23T02:07:50;6.22;;;3.75;;
48516;SDS011;34310;51.904;4.256;2022-10-23T02:10:19;5.43;;;3.55;;
48516;SDS011;34310;51.904;4.256;2022-10-23T02:12:49;4.70;;;3.30;;
48516;SDS011;34310;51.904;4.256;2022-10-23T02:15:47;4.75;;;3.70;;
48516;SDS011;34310;51.904;4.256;2022-10-23T02:18:26;4.38;;;3.60;;
48516;SDS011;34310;51.904;4.256;2022-10-23T02:23:49;5.45;;;3.63;;
48516;SDS011;34310;51.904;4.256;2022-10-23T02:29:09;4.38;;;3.35;;
48516;SDS011;34310;51.904;4.256;2022-10-23T02:31:59;3.38;;;2.85;;
48516;SDS011;34310;51.904;4.256;2022-10-23T02:34:27;4.95;;;3.50;;
48516;SDS011;34310;51.904;4.256;2022-10-23T02:36:54;4.07;;;3.40;;
48516;SDS011;34310;51.904;4.256;2022-10-23T02:39:23;7.03;;;3.40;;
48516;SDS011;34310;51.904;4.256;2022-10-23T02:44:45;5.03;;;3.40;;
48516;SDS011;34310;51.904;4.256;2022-10-23T02:58:42;3.47;;;3.10;;
48516;SDS011;34310;51.904;4.256;2022-10-23T03:01:20;3.88;;;2.90;;
48516;SDS011;34310;51.904;4.256;2022-10-23T03:03:53;4.30;;;3.05;;
48516;SDS011;34310;51.904;4.256;2022-10-23T03:06:26;4.82;;;3.30;;
48516;SDS011;34310;51.904;4.256;2022-10-23T03:09:12;3.88;;;3.10;;
48516;SDS011;34310;51.904;4.256;2022-10-23T03:11:39;5.05;;;3.25;;
48516;SDS011;34310;51.904;4.256;2022-10-23T03:14:06;4.63;;;3.20;;
48516;SDS011;34310;51.904;4.256;2022-10-23T03:16:33;5.43;;;3.70;;
48516;SDS011;34310;51.904;4.256;2022-10-23T03:19:01;4.55;;;3.28;;
48516;SDS011;34310;51.904;4.256;2022-10-23T03:21:28;4.07;;;3.20;;
48516;SDS011;34310;51.904;4.256;2022-10-23T03:23:55;8.13;;;3.42;;
48516;SDS011;34310;51.904;4.256;2022-10-23T03:26:23;3.88;;;3.28;;
48516;SDS011;34310;51.904;4.256;2022-10-23T03:28:50;5.20;;;3.08;;
48516;SDS011;34310;51.904;4.256;2022-10-23T03:31:17;3.42;;;2.92;;
48516;SDS011;34310;51.904;4.256;2022-10-23T03:33:45;5.88;;;3.13;;
48516;SDS011;34310;51.904;4.256;2022-10-23T03:36:12;3.60;;;2.97;;
48516;SDS011;34310;51.904;4.256;2022-10-23T03:38:39;3.30;;;2.85;;
48516;SDS011;34310;51.904;4.256;2022-10-23T03:41:07;3.67;;;3.10;;
48516;SDS011;34310;51.904;4.256;2022-10-23T03:43:34;5.65;;;3.13;;
48516;SDS011;34310;51.904;4.256;2022-10-23T03:46:01;4.25;;;2.92;;
48516;SDS011;34310;51.904;4.256;2022-10-23T03:48:34;3.72;;;3.22;;
48516;SDS011;34310;51.904;4.256;2022-10-23T03:51:04;4.00;;;3.22;;
48516;SDS011;34310;51.904;4.256;2022-10-23T03:53:32;7.35;;;3.25;;
48516;SDS011;34310;51.904;4.256;2022-10-23T03:55:59;4.32;;;3.33;;
48516;SDS011;34310;51.904;4.256;2022-10-23T03:58:27;4.15;;;2.90;;
48516;SDS011;34310;51.904;4.256;2022-10-23T04:00:54;3.33;;;2.70;;
48516;SDS011;34310;51.904;4.256;2022-10-23T04:03:21;3.80;;;3.20;;
48516;SDS011;34310;51.904;4.256;2022-10-23T04:05:49;5.20;;;3.45;;
48516;SDS011;34310;51.904;4.256;2022-10-23T04:08:17;4.93;;;3.47;;
48516;SDS011;34310;51.904;4.256;2022-10-23T04:10:45;4.07;;;3.10;;
48516;SDS011;34310;51.904;4.256;2022-10-23T04:13:12;5.13;;;3.22;;
48516;SDS011;34310;51.904;4.256;2022-10-23T04:15:40;4.88;;;3.40;;
48516;SDS011;34310;51.904;4.256;2022-10-23T04:18:12;4.05;;;3.40;;
48516;SDS011;34310;51.904;4.256;2022-10-23T04:20:40;4.40;;;3.30;;
48516;SDS011;34310;51.904;4.256;2022-10-23T04:23:07;4.72;;;3.67;;
48516;SDS011;34310;51.904;4.256;2022-10-23T04:25:34;4.63;;;3.17;;
48516;SDS011;34310;51.904;4.256;2022-10-23T04:28:02;4.65;;;3.30;;
48516;SDS011;34310;51.904;4.256;2022-10-23T04:30:29;5.68;;;3.00;;
48516;SDS011;34310;51.904;4.256;2022-10-23T04:32:56;3.75;;;2.92;;
48516;SDS011;34310;51.904;4.256;2022-10-23T04:35:23;3.70;;;2.97;;
48516;SDS011;34310;51.904;4.256;2022-10-23T04:37:51;3.38;;;2.90;;
48516;SDS011;34310;51.904;4.256;2022-10-23T04:40:18;3.95;;;3.30;;
48516;SDS011;34310;51.904;4.256;2022-10-23T04:42:45;4.03;;;2.88;;
48516;SDS011;34310;51.904;4.256;2022-10-23T04:45:12;2.90;;;2.63;;
48516;SDS011;34310;51.904;4.256;2022-10-23T04:47:40;4.45;;;2.85;;
48516;SDS011;34310;51.904;4.256;2022-10-23T04:50:07;4.15;;;3.20;;
48516;SDS011;34310;51.904;4.256;2022-10-23T04:52:34;4.40;;;3.17;;
48516;SDS011;34310;51.904;4.256;2022-10-23T04:55:02;4.35;;;3.30;;
48516;SDS011;34310;51.904;4.256;2022-10-23T04:57:29;3.10;;;2.80;;
48516;SDS011;34310;51.904;4.256;2022-10-23T04:59:56;3.95;;;3.05;;
48516;SDS011;34310;51.904;4.256;2022-10-23T05:02:24;4.28;;;3.10;;
48516;SDS011;34310;51.904;4.256;2022-10-23T05:04:52;3.63;;;2.50;;
48516;SDS011;34310;51.904;4.256;2022-10-23T05:07:19;3.58;;;2.90;;
48516;SDS011;34310;51.904;4.256;2022-10-23T05:09:52;4.32;;;2.92;;
48516;SDS011;34310;51.904;4.256;2022-10-23T05:12:19;3.75;;;3.10;;
48516;SDS011;34310;51.904;4.256;2022-10-23T05:14:46;4.22;;;2.95;;
48516;SDS011;34310;51.904;4.256;2022-10-23T05:17:15;3.40;;;3.08;;
48516;SDS011;34310;51.904;4.256;2022-10-23T05:19:50;3.90;;;2.95;;
48516;SDS011;34310;51.904;4.256;2022-10-23T05:22:23;4.15;;;3.10;;
48516;SDS011;34310;51.904;4.256;2022-10-23T05:24:55;4.47;;;3.30;;
48516;SDS011;34310;51.904;4.256;2022-10-23T05:27:22;3.40;;;2.90;;
48516;SDS011;34310;51.904;4.256;2022-10-23T05:29:50;3.60;;;3.17;;
48516;SDS011;34310;51.904;4.256;2022-10-23T05:32:17;3.28;;;2.90;;
48516;SDS011;34310;51.904;4.256;2022-10-23T05:34:50;3.35;;;2.72;;
48516;SDS011;34310;51.904;4.256;2022-10-23T05:37:17;4.03;;;2.83;;
48516;SDS011;34310;51.904;4.256;2022-10-23T05:39:45;3.22;;;2.83;;
48516;SDS011;34310;51.904;4.256;2022-10-23T05:42:12;4.95;;;3.05;;
48516;SDS011;34310;51.904;4.256;2022-10-23T05:44:39;3.92;;;3.03;;
48516;SDS011;34310;51.904;4.256;2022-10-23T05:47:07;3.53;;;2.90;;
48516;SDS011;34310;51.904;4.256;2022-10-23T05:49:34;4.15;;;3.10;;
48516;SDS011;34310;51.904;4.256;2022-10-23T05:52:01;3.20;;;2.83;;
48516;SDS011;34310;51.904;4.256;2022-10-23T05:54:29;4.35;;;3.17;;
48516;SDS011;34310;51.904;4.256;2022-10-23T05:56:56;4.93;;;3.22;;
48516;SDS011;34310;51.904;4.256;2022-10-23T05:59:23;4.10;;;3.30;;
48516;SDS011;34310;51.904;4.256;2022-10-23T06:01:50;4.35;;;2.90;;
48516;SDS011;34310;51.904;4.256;2022-10-23T06:04:18;3.42;;;2.90;;
48516;SDS011;34310;51.904;4.256;2022-10-23T06:06:45;3.50;;;3.08;;
48516;SDS011;34310;51.904;4.256;2022-10-23T06:09:13;4.03;;;2.80;;
48516;SDS011;34310;51.904;4.256;2022-10-23T06:11:41;4.00;;;2.85;;
48516;SDS011;34310;51.904;4.256;2022-10-23T06:14:08;3.92;;;2.95;;
48516;SDS011;34310;51.904;4.256;2022-10-23T06:16:36;3.17;;;2.70;;
48516;SDS011;34310;51.904;4.256;2022-10-23T06:19:03;4.05;;;2.95;;
48516;SDS011;34310;51.904;4.256;2022-10-23T06:21:30;3.30;;;2.95;;
48516;SDS011;34310;51.904;4.256;2022-10-23T06:24:01;3.63;;;2.95;;
48516;SDS011;34310;51.904;4.256;2022-10-23T06:26:28;4.15;;;3.30;;
48516;SDS011;34310;51.904;4.256;2022-10-23T06:28:56;3.20;;;2.90;;
48516;SDS011;34310;51.904;4.256;2022-10-23T06:31:23;3.15;;;2.78;;
48516;SDS011;34310;51.904;4.256;2022-10-23T06:33:53;3.85;;;3.10;;
48516;SDS011;34310;51.904;4.256;2022-10-23T06:36:22;3.67;;;3.08;;
48516;SDS011;34310;51.904;4.256;2022-10-23T06:38:50;3.80;;;3.00;;
48516;SDS011;34310;51.904;4.256;2022-10-23T06:41:19;4.00;;;3.10;;
48516;SDS011;34310;51.904;4.256;2022-10-23T06:43:47;3.35;;;2.90;;
48516;SDS011;34310;51.904;4.256;2022-10-23T06:46:17;2.83;;;2.53;;
48516;SDS011;34310;51.904;4.256;2022-10-23T06:48:44;3.78;;;2.80;;
48516;SDS011;34310;51.904;4.256;2022-10-23T06:51:12;3.28;;;2.90;;
48516;SDS011;34310;51.904;4.256;2022-10-23T06:53:42;3.40;;;2.75;;
48516;SDS011;34310;51.904;4.256;2022-10-23T06:56:10;4.07;;;2.80;;
48516;SDS011;34310;51.904;4.256;2022-10-23T06:58:38;3.60;;;3.08;;
48516;SDS011;34310;51.904;4.256;2022-10-23T07:01:07;3.90;;;2.90;;
48516;SDS011;34310;51.904;4.256;2022-10-23T07:03:37;3.85;;;3.00;;
48516;SDS011;34310;51.904;4.256;2022-10-23T07:06:05;3.20;;;2.90;;
48516;SDS011;34310;51.904;4.256;2022-10-23T07:08:33;3.45;;;3.10;;
48516;SDS011;34310;51.904;4.256;2022-10-23T07:11:01;2.97;;;2.60;;
48516;SDS011;34310;51.904;4.256;2022-10-23T07:13:30;3.08;;;2.78;;
48516;SDS011;34310;51.904;4.256;2022-10-23T07:15:58;4.22;;;3.22;;
48516;SDS011;34310;51.904;4.256;2022-10-23T07:18:34;3.58;;;2.72;;
48516;SDS011;34310;51.904;4.256;2022-10-23T07:21:01;3.33;;;2.65;;
48516;SDS011;34310;51.904;4.256;2022-10-23T07:23:28;4.15;;;3.00;;
48516;SDS011;34310;51.904;4.256;2022-10-23T07:26:01;3.65;;;3.10;;
48516;SDS011;34310;51.904;4.256;2022-10-23T07:28:43;3.50;;;2.95;;
48516;SDS011;34310;51.904;4.256;2022-10-23T07:31:11;3.60;;;2.88;;
48516;SDS011;34310;51.904;4.256;2022-10-23T07:33:39;3.25;;;2.80;;
48516;SDS011;34310;51.904;4.256;2022-10-23T07:36:06;3.83;;;2.92;;
48516;SDS011;34310;51.904;4.256;2022-10-23T07:38:34;3.38;;;2.78;;
48516;SDS011;34310;51.904;4.256;2022-10-23T07:41:02;3.60;;;2.67;;
48516;SDS011;34310;51.904;4.256;2022-10-23T07:43:34;3.22;;;2.80;;
48516;SDS011;34310;51.904;4.256;2022-10-23T07:46:01;4.00;;;2.85;;
48516;SDS011;34310;51.904;4.256;2022-10-23T07:48:29;3.03;;;2.72;;
48516;SDS011;34310;51.904;4.256;2022-10-23T07:50:56;3.40;;;2.92;;
48516;SDS011;34310;51.904;4.256;2022-10-23T07:53:33;3.97;;;2.60;;
48516;SDS011;34310;51.904;4.256;2022-10-23T07:56:02;3.30;;;3.00;;
48516;SDS011;34310;51.904;4.256;2022-10-23T07:58:37;3.22;;;2.75;;
48516;SDS011;34310;51.904;4.256;2022-10-23T08:01:05;3.17;;;2.60;;
48516;SDS011;34310;51.904;4.256;2022-10-23T08:03:49;3.80;;;2.80;;
48516;SDS011;34310;51.904;4.256;2022-10-23T08:06:16;3.40;;;2.72;;
48516;SDS011;34310;51.904;4.256;2022-10-23T08:08:43;3.03;;;2.70;;
48516;SDS011;34310;51.904;4.256;2022-10-23T08:11:16;3.58;;;2.75;;
48516;SDS011;34310;51.904;4.256;2022-10-23T08:13:50;4.00;;;2.78;;
48516;SDS011;34310;51.904;4.256;2022-10-23T08:16:19;3.22;;;2.60;;
48516;SDS011;34310;51.904;4.256;2022-10-23T08:18:47;3.22;;;2.80;;
48516;SDS011;34310;51.904;4.256;2022-10-23T08:21:15;3.08;;;2.60;;
48516;SDS011;34310;51.904;4.256;2022-10-23T08:23:43;6.50;;;3.03;;
48516;SDS011;34310;51.904;4.256;2022-10-23T08:26:11;3.47;;;2.88;;
48516;SDS011;34310;51.904;4.256;2022-10-23T08:28:38;4.07;;;2.75;;
48516;SDS011;34310;51.904;4.256;2022-10-23T08:31:13;3.60;;;2.80;;
48516;SDS011;34310;51.904;4.256;2022-10-23T08:33:41;4.65;;;3.25;;
48516;SDS011;34310;51.904;4.256;2022-10-23T08:36:22;3.25;;;2.95;;
48516;SDS011;34310;51.904;4.256;2022-10-23T08:38:52;3.45;;;2.80;;
48516;SDS011;34310;51.904;4.256;2022-10-23T08:46:46;5.57;;;3.53;;
48516;SDS011;34310;51.904;4.256;2022-10-23T08:49:35;3.65;;;3.05;;
48516;SDS011;34310;51.904;4.256;2022-10-23T08:52:11;3.60;;;3.07;;
48516;SDS011;34310;51.904;4.256;2022-10-23T08:55:12;3.88;;;2.63;;
48516;SDS011;34310;51.904;4.256;2022-10-23T09:00:25;4.45;;;3.10;;
48516;SDS011;34310;51.904;4.256;2022-10-23T09:02:54;6.88;;;3.78;;
48516;SDS011;34310;51.904;4.256;2022-10-23T09:16:35;7.85;;;3.53;;
48516;SDS011;34310;51.904;4.256;2022-10-23T09:19:24;8.70;;;3.83;;
48516;SDS011;34310;51.904;4.256;2022-10-23T09:21:54;7.65;;;3.50;;
48516;SDS011;34310;51.904;4.256;2022-10-23T09:24:24;6.03;;;3.60;;
48516;SDS011;34310;51.904;4.256;2022-10-23T09:26:53;5.57;;;3.92;;
48516;SDS011;34310;51.904;4.256;2022-10-23T09:29:22;7.28;;;4.30;;
48516;SDS011;34310;51.904;4.256;2022-10-23T09:32:02;7.57;;;4.13;;
48516;SDS011;34310;51.904;4.256;2022-10-23T09:34:31;8.18;;;4.00;;
48516;SDS011;34310;51.904;4.256;2022-10-23T09:37:01;7.57;;;3.67;;
48516;SDS011;34310;51.904;4.256;2022-10-23T09:39:42;6.55;;;4.38;;
48516;SDS011;34310;51.904;4.256;2022-10-23T09:42:27;9.18;;;4.00;;
48516;SDS011;34310;51.904;4.256;2022-10-23T09:44:55;9.40;;;4.28;;
48516;SDS011;34310;51.904;4.256;2022-10-23T09:47:23;9.15;;;4.32;;
48516;SDS011;34310;51.904;4.256;2022-10-23T09:49:52;12.00;;;4.40;;
48516;SDS011;34310;51.904;4.256;2022-10-23T09:52:27;7.57;;;4.40;;
48516;SDS011;34310;51.904;4.256;2022-10-23T09:55:13;6.75;;;4.30;;
48516;SDS011;34310;51.904;4.256;2022-10-23T09:57:46;10.27;;;4.30;;
48516;SDS011;34310;51.904;4.256;2022-10-23T10:03:03;9.93;;;4.53;;
48516;SDS011;34310;51.904;4.256;2022-10-23T10:05:36;9.00;;;4.85;;
48516;SDS011;34310;51.904;4.256;2022-10-23T10:08:11;8.77;;;4.32;;
48516;SDS011;34310;51.904;4.256;2022-10-23T10:11:06;8.68;;;4.63;;
48516;SDS011;34310;51.904;4.256;2022-10-23T10:16:32;6.47;;;4.80;;
48516;SDS011;34310;51.904;4.256;2022-10-23T10:22:02;9.48;;;4.95;;
48516;SDS011;34310;51.904;4.256;2022-10-23T10:24:55;8.55;;;5.13;;
48516;SDS011;34310;51.904;4.256;2022-10-23T10:27:44;8.70;;;4.97;;
48516;SDS011;34310;51.904;4.256;2022-10-23T10:30:22;7.05;;;4.75;;
48516;SDS011;34310;51.904;4.256;2022-10-23T10:32:56;9.80;;;5.07;;
48516;SDS011;34310;51.904;4.256;2022-10-23T10:43:43;6.75;;;5.13;;
48516;SDS011;34310;51.904;4.256;2022-10-23T10:48:58;6.78;;;5.30;;
48516;SDS011;34310;51.904;4.256;2022-10-23T10:52:16;7.93;;;5.35;;
48516;SDS011;34310;51.904;4.256;2022-10-23T10:57:23;6.13;;;5.38;;
48516;SDS011;34310;51.904;4.256;2022-10-23T10:59:53;9.77;;;5.60;;
48516;SDS011;34310;51.904;4.256;2022-10-23T11:07:34;8.20;;;5.93;;
48516;SDS011;34310;51.904;4.256;2022-10-23T11:10:16;7.10;;;5.53;;
48516;SDS011;34310;51.904;4.256;2022-10-23T11:12:45;7.93;;;6.25;;
48516;SDS011;34310;51.904;4.256;2022-10-23T11:15:21;7.70;;;6.13;;
48516;SDS011;34310;51.904;4.256;2022-10-23T11:17:54;8.02;;;5.85;;
48516;SDS011;34310;51.904;4.256;2022-10-23T11:20:45;10.13;;;5.90;;
48516;SDS011;34310;51.904;4.256;2022-10-23T11:23:33;13.07;;;6.15;;
48516;SDS011;34310;51.904;4.256;2022-10-23T11:26:18;14.65;;;6.57;;
48516;SDS011;34310;51.904;4.256;2022-10-23T11:29:08;9.60;;;6.18;;
48516;SDS011;34310;51.904;4.256;2022-10-23T11:37:58;18.92;;;6.22;;
48516;SDS011;34310;51.904;4.256;2022-10-23T11:40:32;14.48;;;6.50;;
48516;SDS011;34310;51.904;4.256;2022-10-23T11:43:00;10.50;;;6.40;;
48516;SDS011;34310;51.904;4.256;2022-10-23T11:45:37;11.82;;;6.18;;
48516;SDS011;34310;51.904;4.256;2022-10-23T12:01:48;10.75;;;6.90;;
48516;SDS011;34310;51.904;4.256;2022-10-23T12:06:45;11.38;;;6.93;;
48516;SDS011;34310;51.904;4.256;2022-10-23T12:09:26;12.85;;;7.45;;
48516;SDS011;34310;51.904;4.256;2022-10-23T12:14:41;11.52;;;7.30;;
48516;SDS011;34310;51.904;4.256;2022-10-23T12:17:42;13.73;;;6.85;;
48516;SDS011;34310;51.904;4.256;2022-10-23T12:28:07;13.65;;;7.97;;
48516;SDS011;34310;51.904;4.256;2022-10-23T12:39:42;12.63;;;7.72;;
48516;SDS011;34310;51.904;4.256;2022-10-23T12:42:24;15.57;;;7.95;;
48516;SDS011;34310;51.904;4.256;2022-10-23T12:44:57;13.38;;;8.43;;
48516;SDS011;34310;51.904;4.256;2022-10-23T12:47:24;13.70;;;8.52;;
48516;SDS011;34310;51.904;4.256;2022-10-23T12:49:52;14.45;;;8.15;;
48516;SDS011;34310;51.904;4.256;2022-10-23T12:52:19;13.52;;;8.15;;
48516;SDS011;34310;51.904;4.256;2022-10-23T12:54:49;17.77;;;8.35;;
48516;SDS011;34310;51.904;4.256;2022-10-23T12:59:50;63.70;;;15.07;;
48516;SDS011;34310;51.904;4.256;2022-10-23T13:02:25;57.28;;;14.00;;
48516;SDS011;34310;51.904;4.256;2022-10-23T13:04:56;54.78;;;15.10;;
48516;SDS011;34310;51.904;4.256;2022-10-23T13:07:29;53.83;;;13.35;;
48516;SDS011;34310;51.904;4.256;2022-10-23T13:09:59;47.30;;;14.95;;
48516;SDS011;34310;51.904;4.256;2022-10-23T13:12:34;54.03;;;15.00;;
48516;SDS011;34310;51.904;4.256;2022-10-23T13:17:40;46.60;;;14.02;;
48516;SDS011;34310;51.904;4.256;2022-10-23T13:22:43;53.50;;;13.65;;
48516;SDS011;34310;51.904;4.256;2022-10-23T13:25:26;49.05;;;14.00;;
48516;SDS011;34310;51.904;4.256;2022-10-23T13:28:09;36.33;;;13.57;;
48516;SDS011;34310;51.904;4.256;2022-10-23T13:30:42;37.50;;;12.88;;
48516;SDS011;34310;51.904;4.256;2022-10-23T13:33:14;41.70;;;14.05;;
48516;SDS011;34310;51.904;4.256;2022-10-23T13:35:58;40.80;;;13.10;;
48516;SDS011;34310;51.904;4.256;2022-10-23T13:41:14;33.72;;;13.13;;
48516;SDS011;34310;51.904;4.256;2022-10-23T13:43:44;35.67;;;12.85;;
48516;SDS011;34310;51.904;4.256;2022-10-23T13:46:17;32.83;;;13.02;;
48516;SDS011;34310;51.904;4.256;2022-10-23T13:48:46;37.83;;;14.07;;
48516;SDS011;34310;51.904;4.256;2022-10-23T13:51:21;34.83;;;14.70;;
48516;SDS011;34310;51.904;4.256;2022-10-23T13:53:50;35.90;;;14.55;;
48516;SDS011;34310;51.904;4.256;2022-10-23T13:56:19;35.58;;;16.77;;
48516;SDS011;34310;51.904;4.256;2022-10-23T13:58:48;33.47;;;16.55;;
48516;SDS011;34310;51.904;4.256;2022-10-23T14:03:53;37.33;;;18.55;;
48516;SDS011;34310;51.904;4.256;2022-10-23T14:06:22;37.10;;;20.23;;
48516;SDS011;34310;51.904;4.256;2022-10-23T14:08:50;41.33;;;20.88;;
48516;SDS011;34310;51.904;4.256;2022-10-23T14:11:18;36.00;;;22.08;;
48516;SDS011;34310;51.904;4.256;2022-10-23T14:13:45;40.33;;;22.48;;
48516;SDS011;34310;51.904;4.256;2022-10-23T14:16:14;37.30;;;24.15;;
48516;SDS011;34310;51.904;4.256;2022-10-23T14:18:43;38.58;;;23.35;;
48516;SDS011;34310;51.904;4.256;2022-10-23T14:21:12;41.50;;;25.50;;
48516;SDS011;34310;51.904;4.256;2022-10-23T14:23:41;47.28;;;28.25;;
48516;SDS011;34310;51.904;4.256;2022-10-23T14:26:10;44.17;;;26.17;;
48516;SDS011;34310;51.904;4.256;2022-10-23T14:28:39;46.33;;;29.25;;
48516;SDS011;34310;51.904;4.256;2022-10-23T14:31:08;48.10;;;31.13;;
48516;SDS011;34310;51.904;4.256;2022-10-23T14:33:40;46.30;;;30.88;;
48516;SDS011;34310;51.904;4.256;2022-10-23T14:36:08;45.80;;;29.67;;
48516;SDS011;34310;51.904;4.256;2022-10-23T14:38:36;45.97;;;30.95;;
48516;SDS011;34310;51.904;4.256;2022-10-23T14:41:14;47.95;;;31.17;;
48516;SDS011;34310;51.904;4.256;2022-10-23T14:43:42;49.35;;;31.55;;
48516;SDS011;34310;51.904;4.256;2022-10-23T14:46:11;46.95;;;30.98;;
48516;SDS011;34310;51.904;4.256;2022-10-23T14:48:39;48.65;;;30.23;;
48516;SDS011;34310;51.904;4.256;2022-10-23T14:51:16;43.22;;;29.92;;
48516;SDS011;34310;51.904;4.256;2022-10-23T14:53:46;51.13;;;32.77;;
48516;SDS011;34310;51.904;4.256;2022-10-23T14:56:14;45.65;;;29.98;;
48516;SDS011;34310;51.904;4.256;2022-10-23T14:58:41;48.90;;;32.33;;
48516;SDS011;34310;51.904;4.256;2022-10-23T15:01:09;43.60;;;31.13;;
48516;SDS011;34310;51.904;4.256;2022-10-23T15:03:36;43.33;;;29.75;;
48516;SDS011;34310;51.904;4.256;2022-10-23T15:06:05;41.00;;;30.15;;
48516;SDS011;34310;51.904;4.256;2022-10-23T15:08:33;42.42;;;30.35;;
48516;SDS011;34310;51.904;4.256;2022-10-23T15:11:01;43.22;;;29.88;;
48516;SDS011;34310;51.904;4.256;2022-10-23T15:13:34;45.10;;;30.13;;
48516;SDS011;34310;51.904;4.256;2022-10-23T15:16:02;42.55;;;29.83;;
48516;SDS011;34310;51.904;4.256;2022-10-23T15:18:31;37.55;;;28.08;;
48516;SDS011;34310;51.904;4.256;2022-10-23T15:20:58;38.58;;;28.65;;
48516;SDS011;34310;51.904;4.256;2022-10-23T15:23:26;42.53;;;29.70;;
48516;SDS011;34310;51.904;4.256;2022-10-23T15:25:54;40.05;;;29.42;;
48516;SDS011;34310;51.904;4.256;2022-10-23T15:28:25;41.47;;;29.58;;
48516;SDS011;34310;51.904;4.256;2022-10-23T15:30:53;43.22;;;28.38;;
48516;SDS011;34310;51.904;4.256;2022-10-23T15:44:25;42.33;;;28.98;;
48516;SDS011;34310;51.904;4.256;2022-10-23T15:46:54;42.95;;;28.90;;
48516;SDS011;34310;51.904;4.256;2022-10-23T15:49:25;40.63;;;29.73;;
48516;SDS011;34310;51.904;4.256;2022-10-23T15:51:57;40.10;;;28.92;;
48516;SDS011;34310;51.904;4.256;2022-10-23T15:54:24;40.75;;;28.63;;
48516;SDS011;34310;51.904;4.256;2022-10-23T15:56:57;41.88;;;28.20;;
48516;SDS011;34310;51.904;4.256;2022-10-23T15:59:25;42.55;;;29.48;;
48516;SDS011;34310;51.904;4.256;2022-10-23T16:01:53;42.10;;;29.23;;
48516;SDS011;34310;51.904;4.256;2022-10-23T16:04:21;40.20;;;27.98;;
48516;SDS011;34310;51.904;4.256;2022-10-23T16:06:48;43.92;;;28.95;;
48516;SDS011;34310;51.904;4.256;2022-10-23T16:09:16;51.35;;;29.52;;
48516;SDS011;34310;51.904;4.256;2022-10-23T16:11:43;52.40;;;30.13;;
48516;SDS011;34310;51.904;4.256;2022-10-23T16:14:11;54.78;;;29.00;;
48516;SDS011;34310;51.904;4.256;2022-10-23T16:16:40;64.70;;;30.42;;
48516;SDS011;34310;51.904;4.256;2022-10-23T16:19:08;61.33;;;30.52;;
48516;SDS011;34310;51.904;4.256;2022-10-23T16:21:36;55.83;;;29.58;;
48516;SDS011;34310;51.904;4.256;2022-10-23T16:24:04;54.92;;;31.60;;
48516;SDS011;34310;51.904;4.256;2022-10-23T16:26:33;52.42;;;31.65;;
48516;SDS011;34310;51.904;4.256;2022-10-23T16:29:02;68.30;;;32.70;;
48516;SDS011;34310;51.904;4.256;2022-10-23T16:31:31;68.60;;;34.40;;
48516;SDS011;34310;51.904;4.256;2022-10-23T16:34:00;62.90;;;33.60;;
48516;SDS011;34310;51.904;4.256;2022-10-23T16:36:29;63.10;;;33.50;;
48516;SDS011;34310;51.904;4.256;2022-10-23T16:38:57;66.95;;;35.97;;
48516;SDS011;34310;51.904;4.256;2022-10-23T16:41:26;67.13;;;35.22;;
48516;SDS011;34310;51.904;4.256;2022-10-23T16:43:54;73.40;;;36.25;;
48516;SDS011;34310;51.904;4.256;2022-10-23T16:46:21;67.13;;;34.97;;
48516;SDS011;34310;51.904;4.256;2022-10-23T16:48:49;67.00;;;33.35;;
48516;SDS011;34310;51.904;4.256;2022-10-23T16:51:18;65.30;;;34.47;;
48516;SDS011;34310;51.904;4.256;2022-10-23T16:53:47;60.72;;;31.38;;
48516;SDS011;34310;51.904;4.256;2022-10-23T16:56:16;57.60;;;31.10;;
48516;SDS011;34310;51.904;4.256;2022-10-23T16:58:46;60.42;;;32.45;;
48516;SDS011;34310;51.904;4.256;2022-10-23T17:01:14;60.45;;;32.38;;
48516;SDS011;34310;51.904;4.256;2022-10-23T17:03:44;58.63;;;32.28;;
48516;SDS011;34310;51.904;4.256;2022-10-23T17:06:15;55.30;;;31.00;;
48516;SDS011;34310;51.904;4.256;2022-10-23T17:08:44;56.35;;;29.83;;
48516;SDS011;34310;51.904;4.256;2022-10-23T17:11:13;50.90;;;29.58;;
48516;SDS011;34310;51.904;4.256;2022-10-23T17:13:44;55.58;;;30.30;;
48516;SDS011;34310;51.904;4.256;2022-10-23T17:18:46;50.25;;;28.20;;
48516;SDS011;34310;51.904;4.256;2022-10-23T17:21:15;48.22;;;26.85;;
48516;SDS011;34310;51.904;4.256;2022-10-23T17:23:43;54.95;;;28.33;;
48516;SDS011;34310;51.904;4.256;2022-10-23T17:26:12;43.83;;;26.23;;
48516;SDS011;34310;51.904;4.256;2022-10-23T17:28:42;47.63;;;26.08;;
48516;SDS011;34310;51.904;4.256;2022-10-23T17:31:11;43.65;;;25.00;;